sensor_id;sensor_type;location;lat;lon;timestamp;noise_LAeq;noise_LA_min;noise_LA_max;noise_LA01;noise_LA95
67304;Laerm;57660;51.436;5.978;2022-12-18T00:00:14;38.08;35.77;40.93;;
67304;Laerm;57660;51.436;5.978;2022-12-18T00:00:26;41.83;33.39;59.49;;
67304;Laerm;57660;51.436;5.978;2022-12-18T00:00:46;34.36;32.32;38.59;;
67304;Laerm;57660;51.436;5.978;2022-12-18T00:01:00;34.93;32.39;40.41;;
67304;Laerm;57660;51.436;5.978;2022-12-18T00:01:14;34.63;32.11;36.84;;
67304;Laerm;57660;51.436;5.978;2022-12-18T00:01:26;36.90;33.32;41.19;;
67304;Laerm;57660;51.436;5.978;2022-12-18T00:01:45;43.46;33.46;56.34;;
67304;Laerm;57660;51.436;5.978;2022-12-18T00:02:01;35.93;33.90;42.45;;
67304;Laerm;57660;51.436;5.978;2022-12-18T00:02:11;34.61;31.56;40.05;;
67304;Laerm;57660;51.436;5.978;2022-12-18T00:02:21;46.45;32.41;50.15;;
67304;Laerm;57660;51.436;5.978;2022-12-18T00:03:01;44.49;39.66;52.12;;
67304;Laerm;57660;51.436;5.978;2022-12-18T00:03:11;71.83;50.97;76.54;;
67304;Laerm;57660;51.436;5.978;2022-12-18T00:03:24;72.11;69.32;76.78;;
67304;Laerm;57660;51.436;5.978;2022-12-18T00:03:35;65.00;44.09;73.01;;
67304;Laerm;57660;51.436;5.978;2022-12-18T00:03:49;41.21;36.09;46.27;;
67304;Laerm;57660;51.436;5.978;2022-12-18T00:04:00;37.03;34.42;40.15;;
67304;Laerm;57660;51.436;5.978;2022-12-18T00:04:40;37.32;33.46;44.72;;
67304;Laerm;57660;51.436;5.978;2022-12-18T00:04:50;40.49;37.46;43.60;;
67304;Laerm;57660;51.436;5.978;2022-12-18T00:05:11;35.51;31.82;43.76;;
67304;Laerm;57660;51.436;5.978;2022-12-18T00:05:21;34.79;31.84;41.48;;
67304;Laerm;57660;51.436;5.978;2022-12-18T00:05:47;34.30;31.44;37.51;;
67304;Laerm;57660;51.436;5.978;2022-12-18T00:05:58;44.46;32.71;50.99;;
67304;Laerm;57660;51.436;5.978;2022-12-18T00:06:14;43.94;40.16;47.84;;
67304;Laerm;57660;51.436;5.978;2022-12-18T00:06:25;44.10;40.71;48.56;;
67304;Laerm;57660;51.436;5.978;2022-12-18T00:06:36;59.84;42.75;72.96;;
67304;Laerm;57660;51.436;5.978;2022-12-18T00:06:49;71.46;67.67;76.04;;
67304;Laerm;57660;51.436;5.978;2022-12-18T00:07:02;73.35;48.19;79.24;;
67304;Laerm;57660;51.436;5.978;2022-12-18T00:07:12;46.11;40.59;50.03;;
67304;Laerm;57660;51.436;5.978;2022-12-18T00:07:25;43.30;39.36;50.84;;
67304;Laerm;57660;51.436;5.978;2022-12-18T00:07:36;41.76;38.13;46.77;;
67304;Laerm;57660;51.436;5.978;2022-12-18T00:07:46;40.20;37.27;44.10;;
67304;Laerm;57660;51.436;5.978;2022-12-18T00:07:57;47.21;39.73;55.04;;
67304;Laerm;57660;51.436;5.978;2022-12-18T00:08:07;40.34;37.56;43.78;;
67304;Laerm;57660;51.436;5.978;2022-12-18T00:08:24;46.90;38.07;54.93;;
67304;Laerm;57660;51.436;5.978;2022-12-18T00:08:34;40.56;34.78;51.12;;
67304;Laerm;57660;51.436;5.978;2022-12-18T00:08:45;38.61;34.95;45.94;;
67304;Laerm;57660;51.436;5.978;2022-12-18T00:09:11;45.89;34.78;58.31;;
67304;Laerm;57660;51.436;5.978;2022-12-18T00:09:21;38.89;33.91;45.90;;
67304;Laerm;57660;51.436;5.978;2022-12-18T00:09:31;37.97;33.63;45.93;;
67304;Laerm;57660;51.436;5.978;2022-12-18T00:09:49;35.47;31.98;40.02;;
67304;Laerm;57660;51.436;5.978;2022-12-18T00:10:42;38.36;31.44;47.07;;
67304;Laerm;57660;51.436;5.978;2022-12-18T00:10:55;43.58;35.59;54.64;;
67304;Laerm;57660;51.436;5.978;2022-12-18T00:11:10;43.49;35.55;51.21;;
67304;Laerm;57660;51.436;5.978;2022-12-18T00:11:21;45.47;35.17;55.84;;
67304;Laerm;57660;51.436;5.978;2022-12-18T00:11:32;43.22;38.56;48.40;;
67304;Laerm;57660;51.436;5.978;2022-12-18T00:11:42;52.23;45.09;56.70;;
67304;Laerm;57660;51.436;5.978;2022-12-18T00:11:58;49.69;42.56;55.31;;
67304;Laerm;57660;51.436;5.978;2022-12-18T00:12:08;39.32;34.02;48.43;;
67304;Laerm;57660;51.436;5.978;2022-12-18T00:12:19;36.31;33.33;39.67;;
67304;Laerm;57660;51.436;5.978;2022-12-18T00:12:29;35.96;32.57;39.75;;
67304;Laerm;57660;51.436;5.978;2022-12-18T00:12:39;36.77;33.84;39.80;;
67304;Laerm;57660;51.436;5.978;2022-12-18T00:12:58;36.15;33.24;39.06;;
67304;Laerm;57660;51.436;5.978;2022-12-18T00:13:09;44.74;34.53;55.68;;
67304;Laerm;57660;51.436;5.978;2022-12-18T00:13:19;36.77;32.41;43.81;;
67304;Laerm;57660;51.436;5.978;2022-12-18T00:13:32;38.86;34.77;42.96;;
67304;Laerm;57660;51.436;5.978;2022-12-18T00:13:47;34.03;31.27;38.25;;
67304;Laerm;57660;51.436;5.978;2022-12-18T00:13:58;33.50;31.03;37.37;;
67304;Laerm;57660;51.436;5.978;2022-12-18T00:14:11;34.84;31.59;40.53;;
67304;Laerm;57660;51.436;5.978;2022-12-18T00:14:22;38.89;32.12;55.52;;
67304;Laerm;57660;51.436;5.978;2022-12-18T00:14:32;46.84;33.42;61.63;;
67304;Laerm;57660;51.436;5.978;2022-12-18T00:14:44;48.45;34.10;63.43;;
67304;Laerm;57660;51.436;5.978;2022-12-18T00:14:57;56.28;32.73;78.23;;
67304;Laerm;57660;51.436;5.978;2022-12-18T00:15:07;48.53;31.85;70.21;;
67304;Laerm;57660;51.436;5.978;2022-12-18T00:15:18;49.09;32.69;69.88;;
67304;Laerm;57660;51.436;5.978;2022-12-18T00:15:28;37.56;31.92;55.03;;
67304;Laerm;57660;51.436;5.978;2022-12-18T00:15:38;35.42;31.96;40.32;;
67304;Laerm;57660;51.436;5.978;2022-12-18T00:15:51;35.22;31.39;47.44;;
67304;Laerm;57660;51.436;5.978;2022-12-18T00:16:14;35.94;30.89;46.48;;
67304;Laerm;57660;51.436;5.978;2022-12-18T00:16:25;34.79;32.10;41.54;;
67304;Laerm;57660;51.436;5.978;2022-12-18T00:16:45;34.67;31.79;45.37;;
67304;Laerm;57660;51.436;5.978;2022-12-18T00:16:56;35.78;31.70;40.51;;
67304;Laerm;57660;51.436;5.978;2022-12-18T00:17:20;41.83;33.73;51.89;;
67304;Laerm;57660;51.436;5.978;2022-12-18T00:17:33;38.74;33.27;46.94;;
67304;Laerm;57660;51.436;5.978;2022-12-18T00:17:43;35.97;32.37;42.43;;
67304;Laerm;57660;51.436;5.978;2022-12-18T00:18:06;36.52;32.38;44.55;;
67304;Laerm;57660;51.436;5.978;2022-12-18T00:18:16;43.40;33.50;53.47;;
67304;Laerm;57660;51.436;5.978;2022-12-18T00:18:26;35.86;33.01;39.98;;
67304;Laerm;57660;51.436;5.978;2022-12-18T00:18:42;39.11;35.23;45.34;;
67304;Laerm;57660;51.436;5.978;2022-12-18T00:18:58;44.03;34.43;53.82;;
67304;Laerm;57660;51.436;5.978;2022-12-18T00:19:15;46.39;37.16;55.66;;
67304;Laerm;57660;51.436;5.978;2022-12-18T00:19:25;43.62;35.70;55.72;;
67304;Laerm;57660;51.436;5.978;2022-12-18T00:19:45;35.31;32.76;39.02;;
67304;Laerm;57660;51.436;5.978;2022-12-18T00:19:55;37.46;32.91;44.31;;
67304;Laerm;57660;51.436;5.978;2022-12-18T00:20:13;38.36;33.49;44.98;;
67304;Laerm;57660;51.436;5.978;2022-12-18T00:20:41;39.94;33.39;47.95;;
67304;Laerm;57660;51.436;5.978;2022-12-18T00:20:54;41.92;31.92;49.81;;
67304;Laerm;57660;51.436;5.978;2022-12-18T00:21:30;34.40;31.89;44.91;;
67304;Laerm;57660;51.436;5.978;2022-12-18T00:21:41;35.06;31.62;42.52;;
67304;Laerm;57660;51.436;5.978;2022-12-18T00:21:51;34.76;31.59;39.00;;
67304;Laerm;57660;51.436;5.978;2022-12-18T00:22:02;34.28;30.89;37.74;;
67304;Laerm;57660;51.436;5.978;2022-12-18T00:22:12;34.32;32.09;36.70;;
67304;Laerm;57660;51.436;5.978;2022-12-18T00:22:31;40.26;32.14;54.15;;
67304;Laerm;57660;51.436;5.978;2022-12-18T00:22:54;36.56;31.11;43.66;;
67304;Laerm;57660;51.436;5.978;2022-12-18T00:23:05;45.41;35.73;59.02;;
67304;Laerm;57660;51.436;5.978;2022-12-18T00:23:15;40.66;33.35;50.77;;
67304;Laerm;57660;51.436;5.978;2022-12-18T00:23:29;46.84;40.41;52.29;;
67304;Laerm;57660;51.436;5.978;2022-12-18T00:23:40;43.52;31.56;55.69;;
67304;Laerm;57660;51.436;5.978;2022-12-18T00:23:57;33.28;30.88;36.07;;
67304;Laerm;57660;51.436;5.978;2022-12-18T00:24:08;33.52;30.76;41.46;;
67304;Laerm;57660;51.436;5.978;2022-12-18T00:24:20;39.51;32.34;44.90;;
67304;Laerm;57660;51.436;5.978;2022-12-18T00:24:31;36.08;31.74;43.12;;
67304;Laerm;57660;51.436;5.978;2022-12-18T00:24:56;33.11;31.24;38.25;;
67304;Laerm;57660;51.436;5.978;2022-12-18T00:25:06;33.11;30.48;39.67;;
67304;Laerm;57660;51.436;5.978;2022-12-18T00:25:23;32.02;30.20;34.24;;
67304;Laerm;57660;51.436;5.978;2022-12-18T00:25:33;34.40;30.71;41.51;;
67304;Laerm;57660;51.436;5.978;2022-12-18T00:26:04;38.55;30.29;45.32;;
67304;Laerm;57660;51.436;5.978;2022-12-18T00:26:28;33.17;31.08;38.28;;
67304;Laerm;57660;51.436;5.978;2022-12-18T00:26:39;32.37;31.08;35.79;;
67304;Laerm;57660;51.436;5.978;2022-12-18T00:27:02;32.96;31.09;36.94;;
67304;Laerm;57660;51.436;5.978;2022-12-18T00:27:19;31.90;30.39;33.95;;
67304;Laerm;57660;51.436;5.978;2022-12-18T00:27:41;32.32;30.41;36.84;;
67304;Laerm;57660;51.436;5.978;2022-12-18T00:28:27;32.28;30.00;35.94;;
67304;Laerm;57660;51.436;5.978;2022-12-18T00:28:41;33.34;31.08;38.30;;
67304;Laerm;57660;51.436;5.978;2022-12-18T00:28:52;34.17;31.57;38.75;;
67304;Laerm;57660;51.436;5.978;2022-12-18T00:29:12;34.39;31.22;42.39;;
67304;Laerm;57660;51.436;5.978;2022-12-18T00:29:23;33.09;30.79;37.88;;
67304;Laerm;57660;51.436;5.978;2022-12-18T00:29:40;33.30;30.64;38.70;;
67304;Laerm;57660;51.436;5.978;2022-12-18T00:29:50;32.61;30.34;38.16;;
67304;Laerm;57660;51.436;5.978;2022-12-18T00:30:03;32.82;30.88;35.96;;
67304;Laerm;57660;51.436;5.978;2022-12-18T00:30:13;33.63;30.85;40.34;;
67304;Laerm;57660;51.436;5.978;2022-12-18T00:30:24;33.12;30.21;43.10;;
67304;Laerm;57660;51.436;5.978;2022-12-18T00:30:41;31.98;30.51;33.42;;
67304;Laerm;57660;51.436;5.978;2022-12-18T00:30:59;31.97;30.35;36.62;;
67304;Laerm;57660;51.436;5.978;2022-12-18T00:31:14;42.71;29.90;59.58;;
67304;Laerm;57660;51.436;5.978;2022-12-18T00:31:24;31.06;29.87;34.22;;
67304;Laerm;57660;51.436;5.978;2022-12-18T00:31:53;33.13;30.35;34.99;;
67304;Laerm;57660;51.436;5.978;2022-12-18T00:32:03;47.85;31.25;60.08;;
67304;Laerm;57660;51.436;5.978;2022-12-18T00:32:13;31.98;30.11;36.89;;
67304;Laerm;57660;51.436;5.978;2022-12-18T00:32:27;31.15;29.84;36.26;;
67304;Laerm;57660;51.436;5.978;2022-12-18T00:32:37;31.28;29.72;40.64;;
67304;Laerm;57660;51.436;5.978;2022-12-18T00:32:53;31.38;30.32;32.85;;
67304;Laerm;57660;51.436;5.978;2022-12-18T00:33:03;31.68;30.42;33.07;;
67304;Laerm;57660;51.436;5.978;2022-12-18T00:33:13;31.78;30.44;33.55;;
67304;Laerm;57660;51.436;5.978;2022-12-18T00:33:29;32.23;30.71;34.34;;
67304;Laerm;57660;51.436;5.978;2022-12-18T00:33:40;35.19;30.12;51.16;;
67304;Laerm;57660;51.436;5.978;2022-12-18T00:33:50;32.46;30.83;37.90;;
67304;Laerm;57660;51.436;5.978;2022-12-18T00:34:03;33.14;30.93;44.68;;
67304;Laerm;57660;51.436;5.978;2022-12-18T00:34:23;31.97;30.70;33.67;;
67304;Laerm;57660;51.436;5.978;2022-12-18T00:34:50;33.02;30.81;37.61;;
67304;Laerm;57660;51.436;5.978;2022-12-18T00:35:00;41.91;30.49;53.77;;
67304;Laerm;57660;51.436;5.978;2022-12-18T00:35:20;31.64;30.10;43.46;;
67304;Laerm;57660;51.436;5.978;2022-12-18T00:35:31;31.44;29.93;42.55;;
67304;Laerm;57660;51.436;5.978;2022-12-18T00:35:41;31.28;30.12;32.58;;
67304;Laerm;57660;51.436;5.978;2022-12-18T00:35:54;31.36;30.19;32.88;;
67304;Laerm;57660;51.436;5.978;2022-12-18T00:36:05;31.05;29.85;33.29;;
67304;Laerm;57660;51.436;5.978;2022-12-18T00:36:17;31.02;29.99;32.32;;
67304;Laerm;57660;51.436;5.978;2022-12-18T00:36:34;32.01;30.04;43.41;;
67304;Laerm;57660;51.436;5.978;2022-12-18T00:36:47;31.33;30.02;32.83;;
67304;Laerm;57660;51.436;5.978;2022-12-18T00:37:03;31.06;29.82;32.58;;
67304;Laerm;57660;51.436;5.978;2022-12-18T00:37:13;31.11;29.90;32.43;;
67304;Laerm;57660;51.436;5.978;2022-12-18T00:37:39;31.04;29.97;32.77;;
67304;Laerm;57660;51.436;5.978;2022-12-18T00:37:58;31.12;29.72;32.55;;
67304;Laerm;57660;51.436;5.978;2022-12-18T00:38:08;31.39;30.25;32.99;;
67304;Laerm;57660;51.436;5.978;2022-12-18T00:38:19;31.84;30.57;33.91;;
67304;Laerm;57660;51.436;5.978;2022-12-18T00:38:35;31.45;30.25;33.60;;
67304;Laerm;57660;51.436;5.978;2022-12-18T00:38:48;31.49;30.22;34.52;;
67304;Laerm;57660;51.436;5.978;2022-12-18T00:39:34;31.54;29.87;34.75;;
67304;Laerm;57660;51.436;5.978;2022-12-18T00:39:44;31.49;30.07;40.78;;
67304;Laerm;57660;51.436;5.978;2022-12-18T00:39:54;32.76;30.63;35.59;;
67304;Laerm;57660;51.436;5.978;2022-12-18T00:40:10;33.05;30.35;36.43;;
67304;Laerm;57660;51.436;5.978;2022-12-18T00:40:20;31.30;30.21;32.50;;
67304;Laerm;57660;51.436;5.978;2022-12-18T00:40:40;32.11;30.36;34.75;;
67304;Laerm;57660;51.436;5.978;2022-12-18T00:40:50;31.85;30.10;35.08;;
67304;Laerm;57660;51.436;5.978;2022-12-18T00:41:01;35.05;31.60;38.46;;
67304;Laerm;57660;51.436;5.978;2022-12-18T00:41:12;31.71;30.33;33.73;;
67304;Laerm;57660;51.436;5.978;2022-12-18T00:41:22;31.07;30.01;32.75;;
67304;Laerm;57660;51.436;5.978;2022-12-18T00:41:51;31.18;29.86;33.35;;
67304;Laerm;57660;51.436;5.978;2022-12-18T00:42:20;31.12;29.96;32.53;;
67304;Laerm;57660;51.436;5.978;2022-12-18T00:42:49;44.17;30.69;54.47;;
67304;Laerm;57660;51.436;5.978;2022-12-18T00:43:06;37.93;30.94;46.85;;
67304;Laerm;57660;51.436;5.978;2022-12-18T00:43:19;32.74;31.10;35.25;;
67304;Laerm;57660;51.436;5.978;2022-12-18T00:43:29;33.06;30.45;36.69;;
67304;Laerm;57660;51.436;5.978;2022-12-18T00:43:40;34.27;31.38;40.00;;
67304;Laerm;57660;51.436;5.978;2022-12-18T00:43:50;35.48;31.51;41.30;;
67304;Laerm;57660;51.436;5.978;2022-12-18T00:44:01;34.59;32.05;37.70;;
67304;Laerm;57660;51.436;5.978;2022-12-18T00:44:13;34.90;31.56;39.50;;
67304;Laerm;57660;51.436;5.978;2022-12-18T00:44:23;32.92;30.91;36.67;;
67304;Laerm;57660;51.436;5.978;2022-12-18T00:44:34;31.80;30.16;34.13;;
67304;Laerm;57660;51.436;5.978;2022-12-18T00:44:44;31.17;29.75;32.53;;
67304;Laerm;57660;51.436;5.978;2022-12-18T00:44:54;31.89;30.52;34.85;;
67304;Laerm;57660;51.436;5.978;2022-12-18T00:45:04;31.80;30.73;33.20;;
67304;Laerm;57660;51.436;5.978;2022-12-18T00:45:15;31.76;30.38;33.05;;
67304;Laerm;57660;51.436;5.978;2022-12-18T00:45:28;31.82;30.38;34.09;;
67304;Laerm;57660;51.436;5.978;2022-12-18T00:45:39;31.38;30.18;32.69;;
67304;Laerm;57660;51.436;5.978;2022-12-18T00:45:55;31.30;30.14;32.78;;
67304;Laerm;57660;51.436;5.978;2022-12-18T00:46:05;31.19;29.64;37.25;;
67304;Laerm;57660;51.436;5.978;2022-12-18T00:46:16;31.42;30.24;34.12;;
67304;Laerm;57660;51.436;5.978;2022-12-18T00:46:26;31.52;30.57;32.55;;
67304;Laerm;57660;51.436;5.978;2022-12-18T00:46:36;31.45;30.11;32.63;;
67304;Laerm;57660;51.436;5.978;2022-12-18T00:46:52;31.42;30.40;32.69;;
67304;Laerm;57660;51.436;5.978;2022-12-18T00:47:03;34.00;30.40;41.10;;
67304;Laerm;57660;51.436;5.978;2022-12-18T00:47:13;47.94;40.19;53.37;;
67304;Laerm;57660;51.436;5.978;2022-12-18T00:47:23;46.94;43.12;50.19;;
67304;Laerm;57660;51.436;5.978;2022-12-18T00:47:42;45.01;42.88;47.06;;
67304;Laerm;57660;51.436;5.978;2022-12-18T00:47:53;49.77;43.50;59.90;;
67304;Laerm;57660;51.436;5.978;2022-12-18T00:48:03;78.76;58.50;87.05;;
67304;Laerm;57660;51.436;5.978;2022-12-18T00:48:13;70.79;68.30;75.15;;
67304;Laerm;57660;51.436;5.978;2022-12-18T00:48:24;70.93;60.25;74.22;;
67304;Laerm;57660;51.436;5.978;2022-12-18T00:48:34;52.02;41.10;60.01;;
67304;Laerm;57660;51.436;5.978;2022-12-18T00:48:44;40.43;37.72;42.81;;
67304;Laerm;57660;51.436;5.978;2022-12-18T00:48:54;38.96;36.72;43.08;;
67304;Laerm;57660;51.436;5.978;2022-12-18T00:49:05;39.70;37.77;41.60;;
67304;Laerm;57660;51.436;5.978;2022-12-18T00:49:16;37.19;34.68;39.94;;
67304;Laerm;57660;51.436;5.978;2022-12-18T00:49:26;35.09;33.06;42.00;;
67304;Laerm;57660;51.436;5.978;2022-12-18T00:49:36;34.24;31.60;37.15;;
67304;Laerm;57660;51.436;5.978;2022-12-18T00:49:47;32.79;31.40;34.91;;
67304;Laerm;57660;51.436;5.978;2022-12-18T00:49:57;32.87;31.26;34.49;;
67304;Laerm;57660;51.436;5.978;2022-12-18T00:50:07;34.05;31.71;38.14;;
67304;Laerm;57660;51.436;5.978;2022-12-18T00:50:18;34.38;32.15;38.15;;
67304;Laerm;57660;51.436;5.978;2022-12-18T00:50:28;33.40;31.64;35.45;;
67304;Laerm;57660;51.436;5.978;2022-12-18T00:50:38;34.08;32.32;36.12;;
67304;Laerm;57660;51.436;5.978;2022-12-18T00:50:49;34.92;32.68;37.03;;
67304;Laerm;57660;51.436;5.978;2022-12-18T00:50:59;35.34;31.51;39.92;;
67304;Laerm;57660;51.436;5.978;2022-12-18T00:51:10;43.37;32.97;49.89;;
67304;Laerm;57660;51.436;5.978;2022-12-18T00:51:36;38.93;31.96;46.73;;
67304;Laerm;57660;51.436;5.978;2022-12-18T00:51:47;45.20;32.43;55.30;;
67304;Laerm;57660;51.436;5.978;2022-12-18T00:52:00;33.41;31.62;37.58;;
67304;Laerm;57660;51.436;5.978;2022-12-18T00:52:10;32.04;30.67;34.04;;
67304;Laerm;57660;51.436;5.978;2022-12-18T00:52:20;31.54;30.15;33.44;;
67304;Laerm;57660;51.436;5.978;2022-12-18T00:52:31;32.36;30.73;38.52;;
67304;Laerm;57660;51.436;5.978;2022-12-18T00:52:41;31.66;30.26;33.15;;
67304;Laerm;57660;51.436;5.978;2022-12-18T00:53:05;31.61;30.29;32.62;;
67304;Laerm;57660;51.436;5.978;2022-12-18T00:53:16;31.81;30.02;34.40;;
67304;Laerm;57660;51.436;5.978;2022-12-18T00:53:32;31.09;30.08;32.81;;
67304;Laerm;57660;51.436;5.978;2022-12-18T00:53:42;31.12;30.00;33.10;;
67304;Laerm;57660;51.436;5.978;2022-12-18T00:53:53;31.55;30.27;33.66;;
67304;Laerm;57660;51.436;5.978;2022-12-18T00:54:12;31.93;30.49;34.22;;
67304;Laerm;57660;51.436;5.978;2022-12-18T00:54:22;31.93;29.99;34.83;;
67304;Laerm;57660;51.436;5.978;2022-12-18T00:54:33;31.39;30.34;33.24;;
67304;Laerm;57660;51.436;5.978;2022-12-18T00:54:46;31.44;30.34;33.02;;
67304;Laerm;57660;51.436;5.978;2022-12-18T00:54:56;31.42;30.13;33.34;;
67304;Laerm;57660;51.436;5.978;2022-12-18T00:55:07;31.13;29.86;32.14;;
67304;Laerm;57660;51.436;5.978;2022-12-18T00:55:17;31.15;30.04;33.78;;
67304;Laerm;57660;51.436;5.978;2022-12-18T00:55:28;31.13;30.07;32.19;;
67304;Laerm;57660;51.436;5.978;2022-12-18T00:55:41;31.34;30.04;32.57;;
67304;Laerm;57660;51.436;5.978;2022-12-18T00:56:31;39.27;30.42;51.37;;
67304;Laerm;57660;51.436;5.978;2022-12-18T00:56:41;32.01;30.51;33.40;;
67304;Laerm;57660;51.436;5.978;2022-12-18T00:56:51;31.80;30.48;33.05;;
67304;Laerm;57660;51.436;5.978;2022-12-18T00:57:04;31.86;30.75;33.16;;
67304;Laerm;57660;51.436;5.978;2022-12-18T00:57:15;32.30;30.46;35.93;;
67304;Laerm;57660;51.436;5.978;2022-12-18T00:57:25;32.11;30.60;36.55;;
67304;Laerm;57660;51.436;5.978;2022-12-18T00:57:35;31.41;30.28;33.71;;
67304;Laerm;57660;51.436;5.978;2022-12-18T00:57:50;31.06;29.99;32.91;;
67304;Laerm;57660;51.436;5.978;2022-12-18T00:58:00;31.39;30.06;33.13;;
67304;Laerm;57660;51.436;5.978;2022-12-18T00:58:11;31.78;30.32;34.78;;
67304;Laerm;57660;51.436;5.978;2022-12-18T00:58:21;31.64;30.22;36.02;;
67304;Laerm;57660;51.436;5.978;2022-12-18T00:58:31;31.33;29.94;34.68;;
67304;Laerm;57660;51.436;5.978;2022-12-18T00:58:41;32.06;29.74;40.84;;
67304;Laerm;57660;51.436;5.978;2022-12-18T00:58:52;37.68;30.55;44.72;;
67304;Laerm;57660;51.436;5.978;2022-12-18T00:59:02;47.56;38.23;57.14;;
67304;Laerm;57660;51.436;5.978;2022-12-18T00:59:15;40.33;34.11;45.62;;
67304;Laerm;57660;51.436;5.978;2022-12-18T00:59:26;33.33;30.78;36.39;;
67304;Laerm;57660;51.436;5.978;2022-12-18T00:59:36;32.42;30.25;35.74;;
67304;Laerm;57660;51.436;5.978;2022-12-18T00:59:49;43.33;34.04;50.81;;
67304;Laerm;57660;51.436;5.978;2022-12-18T00:59:59;38.94;31.32;44.45;;
67304;Laerm;57660;51.436;5.978;2022-12-18T01:00:11;46.34;30.89;61.36;;
67304;Laerm;57660;51.436;5.978;2022-12-18T01:00:58;31.13;29.60;42.83;;
67304;Laerm;57660;51.436;5.978;2022-12-18T01:01:29;32.39;30.03;36.34;;
67304;Laerm;57660;51.436;5.978;2022-12-18T01:01:39;32.34;30.15;37.57;;
67304;Laerm;57660;51.436;5.978;2022-12-18T01:02:02;31.81;30.18;37.11;;
67304;Laerm;57660;51.436;5.978;2022-12-18T01:02:12;31.12;29.82;33.09;;
67304;Laerm;57660;51.436;5.978;2022-12-18T01:02:43;30.67;29.73;32.00;;
67304;Laerm;57660;51.436;5.978;2022-12-18T01:02:53;31.03;29.71;39.58;;
67304;Laerm;57660;51.436;5.978;2022-12-18T01:03:03;35.89;30.22;51.65;;
67304;Laerm;57660;51.436;5.978;2022-12-18T01:03:14;48.34;29.96;66.89;;
67304;Laerm;57660;51.436;5.978;2022-12-18T01:03:24;31.29;29.62;36.33;;
67304;Laerm;57660;51.436;5.978;2022-12-18T01:03:34;30.99;29.90;32.84;;
67304;Laerm;57660;51.436;5.978;2022-12-18T01:03:44;30.62;29.58;32.14;;
67304;Laerm;57660;51.436;5.978;2022-12-18T01:04:16;31.17;29.50;43.13;;
67304;Laerm;57660;51.436;5.978;2022-12-18T01:04:32;30.80;29.80;33.47;;
67304;Laerm;57660;51.436;5.978;2022-12-18T01:04:43;30.71;29.45;33.33;;
67304;Laerm;57660;51.436;5.978;2022-12-18T01:04:59;30.76;29.73;32.94;;
67304;Laerm;57660;51.436;5.978;2022-12-18T01:05:10;30.95;29.97;34.79;;
67304;Laerm;57660;51.436;5.978;2022-12-18T01:05:38;43.22;29.74;66.81;;
67304;Laerm;57660;51.436;5.978;2022-12-18T01:05:49;31.25;29.81;36.39;;
67304;Laerm;57660;51.436;5.978;2022-12-18T01:06:06;40.76;30.62;58.31;;
67304;Laerm;57660;51.436;5.978;2022-12-18T01:06:16;39.16;30.27;46.26;;
67304;Laerm;57660;51.436;5.978;2022-12-18T01:06:26;46.40;33.68;54.02;;
67304;Laerm;57660;51.436;5.978;2022-12-18T01:06:37;36.03;31.81;39.82;;
67304;Laerm;57660;51.436;5.978;2022-12-18T01:06:50;36.99;31.63;45.43;;
67304;Laerm;57660;51.436;5.978;2022-12-18T01:07:00;46.77;34.55;54.92;;
67304;Laerm;57660;51.436;5.978;2022-12-18T01:07:10;34.40;32.12;40.67;;
67304;Laerm;57660;51.436;5.978;2022-12-18T01:07:21;34.68;32.00;43.43;;
67304;Laerm;57660;51.436;5.978;2022-12-18T01:07:31;33.50;31.69;36.28;;
67304;Laerm;57660;51.436;5.978;2022-12-18T01:07:48;33.54;31.94;35.65;;
67304;Laerm;57660;51.436;5.978;2022-12-18T01:07:58;38.97;32.52;45.70;;
67304;Laerm;57660;51.436;5.978;2022-12-18T01:08:11;41.29;33.67;47.94;;
67304;Laerm;57660;51.436;5.978;2022-12-18T01:08:30;34.72;32.67;37.11;;
67304;Laerm;57660;51.436;5.978;2022-12-18T01:08:44;33.50;31.57;35.38;;
67304;Laerm;57660;51.436;5.978;2022-12-18T01:08:54;33.88;32.24;36.36;;
67304;Laerm;57660;51.436;5.978;2022-12-18T01:09:05;33.73;32.18;35.41;;
67304;Laerm;57660;51.436;5.978;2022-12-18T01:09:21;34.12;32.31;36.70;;
67304;Laerm;57660;51.436;5.978;2022-12-18T01:09:31;34.07;32.16;37.28;;
67304;Laerm;57660;51.436;5.978;2022-12-18T01:09:47;33.66;31.51;36.71;;
67304;Laerm;57660;51.436;5.978;2022-12-18T01:10:32;33.14;30.96;35.31;;
67304;Laerm;57660;51.436;5.978;2022-12-18T01:10:42;33.42;31.51;35.00;;
67304;Laerm;57660;51.436;5.978;2022-12-18T01:11:09;44.00;32.40;54.34;;
67304;Laerm;57660;51.436;5.978;2022-12-18T01:11:19;34.08;32.07;37.68;;
67304;Laerm;57660;51.436;5.978;2022-12-18T01:11:30;33.33;31.77;35.67;;
67304;Laerm;57660;51.436;5.978;2022-12-18T01:11:52;33.80;31.44;36.65;;
67304;Laerm;57660;51.436;5.978;2022-12-18T01:12:03;34.16;32.37;36.73;;
67304;Laerm;57660;51.436;5.978;2022-12-18T01:12:13;34.25;32.34;36.54;;
67304;Laerm;57660;51.436;5.978;2022-12-18T01:12:26;33.79;32.12;35.86;;
67304;Laerm;57660;51.436;5.978;2022-12-18T01:12:39;34.32;32.28;36.81;;
67304;Laerm;57660;51.436;5.978;2022-12-18T01:12:59;34.78;32.66;36.51;;
67304;Laerm;57660;51.436;5.978;2022-12-18T01:13:09;34.66;32.04;39.62;;
67304;Laerm;57660;51.436;5.978;2022-12-18T01:13:19;33.69;32.01;35.78;;
67304;Laerm;57660;51.436;5.978;2022-12-18T01:13:32;33.56;31.64;35.97;;
67304;Laerm;57660;51.436;5.978;2022-12-18T01:13:43;33.21;31.73;35.48;;
67304;Laerm;57660;51.436;5.978;2022-12-18T01:13:53;33.19;31.86;35.08;;
67304;Laerm;57660;51.436;5.978;2022-12-18T01:14:04;33.17;31.12;35.07;;
67304;Laerm;57660;51.436;5.978;2022-12-18T01:14:23;33.13;31.57;35.49;;
67304;Laerm;57660;51.436;5.978;2022-12-18T01:14:33;33.01;31.30;35.18;;
67304;Laerm;57660;51.436;5.978;2022-12-18T01:14:50;33.04;31.11;35.28;;
67304;Laerm;57660;51.436;5.978;2022-12-18T01:15:00;32.97;31.41;34.85;;
67304;Laerm;57660;51.436;5.978;2022-12-18T01:15:11;33.12;31.76;35.62;;
67304;Laerm;57660;51.436;5.978;2022-12-18T01:15:33;33.14;31.39;35.17;;
67304;Laerm;57660;51.436;5.978;2022-12-18T01:16:29;33.38;31.63;35.68;;
67304;Laerm;57660;51.436;5.978;2022-12-18T01:16:39;33.80;31.85;35.93;;
67304;Laerm;57660;51.436;5.978;2022-12-18T01:16:52;33.92;31.54;37.58;;
67304;Laerm;57660;51.436;5.978;2022-12-18T01:17:02;33.65;31.87;35.89;;
67304;Laerm;57660;51.436;5.978;2022-12-18T01:17:13;33.39;31.87;35.29;;
67304;Laerm;57660;51.436;5.978;2022-12-18T01:17:29;33.16;31.58;35.16;;
67304;Laerm;57660;51.436;5.978;2022-12-18T01:17:40;33.20;31.66;35.38;;
67304;Laerm;57660;51.436;5.978;2022-12-18T01:17:51;38.46;31.90;50.00;;
67304;Laerm;57660;51.436;5.978;2022-12-18T01:18:04;43.07;31.67;62.03;;
67304;Laerm;57660;51.436;5.978;2022-12-18T01:18:15;33.28;31.58;35.05;;
67304;Laerm;57660;51.436;5.978;2022-12-18T01:18:31;34.44;31.50;50.97;;
67304;Laerm;57660;51.436;5.978;2022-12-18T01:18:44;33.61;31.50;36.09;;
67304;Laerm;57660;51.436;5.978;2022-12-18T01:18:54;34.02;32.57;36.17;;
67304;Laerm;57660;51.436;5.978;2022-12-18T01:19:07;33.98;32.05;42.46;;
67304;Laerm;57660;51.436;5.978;2022-12-18T01:19:18;33.66;31.81;35.40;;
67304;Laerm;57660;51.436;5.978;2022-12-18T01:19:28;33.63;32.05;35.42;;
67304;Laerm;57660;51.436;5.978;2022-12-18T01:19:44;33.61;31.78;35.38;;
67304;Laerm;57660;51.436;5.978;2022-12-18T01:19:54;33.20;31.73;35.97;;
67304;Laerm;57660;51.436;5.978;2022-12-18T01:20:05;33.60;31.10;36.56;;